sensor_id;sensor_type;location;lat;lon;timestamp;P1;durP1;ratioP1;P2;durP2;ratioP2
71572;SDS011;59408;51.032;9.410;2022-10-31T00:00:07;9.80;;;4.40;;
71572;SDS011;59408;51.032;9.410;2022-10-31T00:02:34;10.70;;;3.80;;
71572;SDS011;59408;51.032;9.410;2022-10-31T00:05:01;9.50;;;3.75;;
71572;SDS011;59408;51.032;9.410;2022-10-31T00:07:28;8.88;;;3.75;;
71572;SDS011;59408;51.032;9.410;2022-10-31T00:09:56;9.63;;;3.60;;
71572;SDS011;59408;51.032;9.410;2022-10-31T00:12:22;9.90;;;4.15;;
71572;SDS011;59408;51.032;9.410;2022-10-31T00:14:49;11.30;;;4.00;;
71572;SDS011;59408;51.032;9.410;2022-10-31T00:17:15;11.27;;;4.20;;
71572;SDS011;59408;51.032;9.410;2022-10-31T00:19:42;11.23;;;4.70;;
71572;SDS011;59408;51.032;9.410;2022-10-31T00:22:09;15.57;;;8.70;;
71572;SDS011;59408;51.032;9.410;2022-10-31T00:24:35;20.48;;;12.07;;
71572;SDS011;59408;51.032;9.410;2022-10-31T00:27:03;20.13;;;10.40;;
71572;SDS011;59408;51.032;9.410;2022-10-31T00:29:29;16.25;;;7.80;;
71572;SDS011;59408;51.032;9.410;2022-10-31T00:31:56;14.35;;;7.32;;
71572;SDS011;59408;51.032;9.410;2022-10-31T00:34:23;12.27;;;5.70;;
71572;SDS011;59408;51.032;9.410;2022-10-31T00:36:49;10.98;;;5.30;;
71572;SDS011;59408;51.032;9.410;2022-10-31T00:39:16;13.53;;;6.53;;
71572;SDS011;59408;51.032;9.410;2022-10-31T00:41:42;14.23;;;5.28;;
71572;SDS011;59408;51.032;9.410;2022-10-31T00:44:10;13.45;;;4.97;;
71572;SDS011;59408;51.032;9.410;2022-10-31T00:46:37;10.73;;;4.20;;
71572;SDS011;59408;51.032;9.410;2022-10-31T00:49:03;13.30;;;4.57;;
71572;SDS011;59408;51.032;9.410;2022-10-31T00:51:30;10.63;;;4.33;;
71572;SDS011;59408;51.032;9.410;2022-10-31T00:53:56;11.82;;;4.10;;
71572;SDS011;59408;51.032;9.410;2022-10-31T00:56:23;11.93;;;4.80;;
71572;SDS011;59408;51.032;9.410;2022-10-31T00:58:50;12.38;;;4.60;;
71572;SDS011;59408;51.032;9.410;2022-10-31T01:01:17;9.43;;;4.30;;
71572;SDS011;59408;51.032;9.410;2022-10-31T01:03:44;10.63;;;4.30;;
71572;SDS011;59408;51.032;9.410;2022-10-31T01:06:11;9.95;;;4.30;;
71572;SDS011;59408;51.032;9.410;2022-10-31T01:08:39;9.82;;;4.82;;
71572;SDS011;59408;51.032;9.410;2022-10-31T01:11:07;14.32;;;4.80;;
71572;SDS011;59408;51.032;9.410;2022-10-31T01:13:37;11.57;;;5.13;;
71572;SDS011;59408;51.032;9.410;2022-10-31T01:16:04;11.97;;;4.80;;
71572;SDS011;59408;51.032;9.410;2022-10-31T01:18:33;17.08;;;6.63;;
71572;SDS011;59408;51.032;9.410;2022-10-31T01:21:01;14.88;;;7.05;;
71572;SDS011;59408;51.032;9.410;2022-10-31T01:23:29;17.88;;;8.90;;
71572;SDS011;59408;51.032;9.410;2022-10-31T01:26:04;19.85;;;9.27;;
71572;SDS011;59408;51.032;9.410;2022-10-31T01:28:33;22.30;;;10.87;;
71572;SDS011;59408;51.032;9.410;2022-10-31T01:31:01;19.60;;;10.07;;
71572;SDS011;59408;51.032;9.410;2022-10-31T01:33:28;19.02;;;8.48;;
71572;SDS011;59408;51.032;9.410;2022-10-31T01:35:56;11.85;;;6.35;;
71572;SDS011;59408;51.032;9.410;2022-10-31T01:38:23;10.43;;;4.60;;
71572;SDS011;59408;51.032;9.410;2022-10-31T01:40:50;9.90;;;5.00;;
71572;SDS011;59408;51.032;9.410;2022-10-31T01:43:17;9.13;;;4.72;;
71572;SDS011;59408;51.032;9.410;2022-10-31T01:45:44;8.65;;;4.05;;
71572;SDS011;59408;51.032;9.410;2022-10-31T01:48:17;12.55;;;5.28;;
71572;SDS011;59408;51.032;9.410;2022-10-31T01:50:47;13.68;;;4.95;;
71572;SDS011;59408;51.032;9.410;2022-10-31T01:53:18;11.10;;;4.27;;
71572;SDS011;59408;51.032;9.410;2022-10-31T01:55:52;13.55;;;4.20;;
71572;SDS011;59408;51.032;9.410;2022-10-31T01:58:20;10.60;;;4.40;;
71572;SDS011;59408;51.032;9.410;2022-10-31T02:00:50;9.27;;;4.18;;
71572;SDS011;59408;51.032;9.410;2022-10-31T02:03:22;9.90;;;4.63;;
71572;SDS011;59408;51.032;9.410;2022-10-31T02:05:50;10.47;;;4.43;;
71572;SDS011;59408;51.032;9.410;2022-10-31T02:08:21;11.82;;;4.28;;
71572;SDS011;59408;51.032;9.410;2022-10-31T02:10:51;11.13;;;4.10;;
71572;SDS011;59408;51.032;9.410;2022-10-31T02:13:18;8.70;;;4.03;;
71572;SDS011;59408;51.032;9.410;2022-10-31T02:15:47;10.43;;;4.25;;
71572;SDS011;59408;51.032;9.410;2022-10-31T02:18:16;8.63;;;3.77;;
71572;SDS011;59408;51.032;9.410;2022-10-31T02:20:48;12.27;;;4.35;;
71572;SDS011;59408;51.032;9.410;2022-10-31T02:26:26;12.25;;;4.88;;
71572;SDS011;59408;51.032;9.410;2022-10-31T02:29:16;11.07;;;4.80;;
71572;SDS011;59408;51.032;9.410;2022-10-31T02:32:06;12.43;;;4.43;;
71572;SDS011;59408;51.032;9.410;2022-10-31T02:34:40;9.90;;;4.00;;
71572;SDS011;59408;51.032;9.410;2022-10-31T02:37:16;11.18;;;4.75;;
71572;SDS011;59408;51.032;9.410;2022-10-31T02:39:52;11.73;;;4.47;;
71572;SDS011;59408;51.032;9.410;2022-10-31T02:42:26;11.40;;;4.05;;
71572;SDS011;59408;51.032;9.410;2022-10-31T02:45:00;12.40;;;4.60;;
71572;SDS011;59408;51.032;9.410;2022-10-31T02:47:33;14.38;;;4.30;;
71572;SDS011;59408;51.032;9.410;2022-10-31T02:50:06;10.20;;;4.45;;
71572;SDS011;59408;51.032;9.410;2022-10-31T02:52:37;8.75;;;4.18;;
71572;SDS011;59408;51.032;9.410;2022-10-31T02:55:10;11.25;;;4.53;;
71572;SDS011;59408;51.032;9.410;2022-10-31T02:57:39;9.63;;;4.20;;
71572;SDS011;59408;51.032;9.410;2022-10-31T03:00:08;10.27;;;4.85;;
71572;SDS011;59408;51.032;9.410;2022-10-31T03:02:52;10.65;;;4.50;;
71572;SDS011;59408;51.032;9.410;2022-10-31T03:05:35;10.38;;;4.47;;
71572;SDS011;59408;51.032;9.410;2022-10-31T03:08:13;10.32;;;4.25;;
71572;SDS011;59408;51.032;9.410;2022-10-31T03:10:48;11.47;;;4.43;;
71572;SDS011;59408;51.032;9.410;2022-10-31T03:13:21;9.38;;;4.30;;
71572;SDS011;59408;51.032;9.410;2022-10-31T03:16:00;12.57;;;4.75;;
71572;SDS011;59408;51.032;9.410;2022-10-31T03:18:36;10.93;;;4.72;;
71572;SDS011;59408;51.032;9.410;2022-10-31T03:21:05;9.57;;;4.68;;
71572;SDS011;59408;51.032;9.410;2022-10-31T03:23:36;11.03;;;4.40;;
71572;SDS011;59408;51.032;9.410;2022-10-31T03:26:05;11.95;;;4.82;;
71572;SDS011;59408;51.032;9.410;2022-10-31T03:28:36;11.48;;;4.00;;
71572;SDS011;59408;51.032;9.410;2022-10-31T03:31:05;10.40;;;4.38;;
71572;SDS011;59408;51.032;9.410;2022-10-31T03:33:35;13.13;;;4.47;;
71572;SDS011;59408;51.032;9.410;2022-10-31T03:36:05;13.93;;;4.83;;
71572;SDS011;59408;51.032;9.410;2022-10-31T03:38:35;13.13;;;4.78;;
71572;SDS011;59408;51.032;9.410;2022-10-31T03:41:03;12.88;;;4.75;;
71572;SDS011;59408;51.032;9.410;2022-10-31T03:43:32;11.00;;;4.57;;
71572;SDS011;59408;51.032;9.410;2022-10-31T03:46:04;12.23;;;5.15;;
71572;SDS011;59408;51.032;9.410;2022-10-31T03:48:32;12.57;;;4.20;;
71572;SDS011;59408;51.032;9.410;2022-10-31T03:51:01;11.20;;;4.40;;
71572;SDS011;59408;51.032;9.410;2022-10-31T03:53:34;9.93;;;3.85;;
71572;SDS011;59408;51.032;9.410;2022-10-31T03:56:07;11.50;;;4.30;;
71572;SDS011;59408;51.032;9.410;2022-10-31T03:58:39;15.10;;;4.63;;
71572;SDS011;59408;51.032;9.410;2022-10-31T04:01:11;13.70;;;4.40;;
71572;SDS011;59408;51.032;9.410;2022-10-31T04:03:42;13.02;;;4.90;;
71572;SDS011;59408;51.032;9.410;2022-10-31T04:06:12;10.88;;;4.10;;
71572;SDS011;59408;51.032;9.410;2022-10-31T04:08:42;8.73;;;3.97;;
71572;SDS011;59408;51.032;9.410;2022-10-31T04:11:11;10.45;;;4.45;;
71572;SDS011;59408;51.032;9.410;2022-10-31T04:13:39;9.20;;;3.90;;
71572;SDS011;59408;51.032;9.410;2022-10-31T04:16:08;9.23;;;3.78;;
71572;SDS011;59408;51.032;9.410;2022-10-31T04:18:42;10.50;;;4.00;;
71572;SDS011;59408;51.032;9.410;2022-10-31T04:21:09;10.13;;;4.20;;
71572;SDS011;59408;51.032;9.410;2022-10-31T04:23:37;11.48;;;4.30;;
71572;SDS011;59408;51.032;9.410;2022-10-31T04:26:03;8.63;;;4.23;;
71572;SDS011;59408;51.032;9.410;2022-10-31T04:28:30;10.68;;;4.60;;
71572;SDS011;59408;51.032;9.410;2022-10-31T04:30:57;10.48;;;4.30;;
71572;SDS011;59408;51.032;9.410;2022-10-31T04:33:24;9.25;;;4.30;;
71572;SDS011;59408;51.032;9.410;2022-10-31T04:35:50;13.40;;;4.53;;
71572;SDS011;59408;51.032;9.410;2022-10-31T04:38:17;11.17;;;4.80;;
71572;SDS011;59408;51.032;9.410;2022-10-31T04:40:45;13.05;;;4.65;;
71572;SDS011;59408;51.032;9.410;2022-10-31T04:43:12;10.68;;;4.45;;
71572;SDS011;59408;51.032;9.410;2022-10-31T04:45:39;10.45;;;5.03;;
71572;SDS011;59408;51.032;9.410;2022-10-31T04:48:05;9.30;;;4.53;;
71572;SDS011;59408;51.032;9.410;2022-10-31T04:50:32;10.63;;;4.60;;
71572;SDS011;59408;51.032;9.410;2022-10-31T04:52:58;12.25;;;4.53;;
71572;SDS011;59408;51.032;9.410;2022-10-31T04:55:25;13.10;;;4.68;;
71572;SDS011;59408;51.032;9.410;2022-10-31T04:57:53;13.93;;;4.78;;
71572;SDS011;59408;51.032;9.410;2022-10-31T05:00:20;10.70;;;4.80;;
71572;SDS011;59408;51.032;9.410;2022-10-31T05:02:48;10.93;;;4.87;;
71572;SDS011;59408;51.032;9.410;2022-10-31T05:05:16;11.02;;;5.45;;
71572;SDS011;59408;51.032;9.410;2022-10-31T05:07:44;9.48;;;4.38;;
71572;SDS011;59408;51.032;9.410;2022-10-31T05:10:13;10.73;;;4.80;;
71572;SDS011;59408;51.032;9.410;2022-10-31T05:12:45;11.57;;;4.47;;
71572;SDS011;59408;51.032;9.410;2022-10-31T05:15:13;8.23;;;3.97;;
71572;SDS011;59408;51.032;9.410;2022-10-31T05:17:40;11.65;;;4.55;;
71572;SDS011;59408;51.032;9.410;2022-10-31T05:20:07;10.88;;;5.13;;
71572;SDS011;59408;51.032;9.410;2022-10-31T05:22:34;12.73;;;4.43;;
71572;SDS011;59408;51.032;9.410;2022-10-31T05:25:01;11.32;;;4.40;;
71572;SDS011;59408;51.032;9.410;2022-10-31T05:27:27;9.77;;;4.40;;
71572;SDS011;59408;51.032;9.410;2022-10-31T05:29:54;11.85;;;5.93;;
71572;SDS011;59408;51.032;9.410;2022-10-31T05:32:23;8.95;;;4.32;;
71572;SDS011;59408;51.032;9.410;2022-10-31T05:34:50;11.07;;;4.95;;
71572;SDS011;59408;51.032;9.410;2022-10-31T05:37:16;11.35;;;4.65;;
71572;SDS011;59408;51.032;9.410;2022-10-31T05:39:43;13.43;;;5.13;;
71572;SDS011;59408;51.032;9.410;2022-10-31T05:42:09;10.73;;;5.03;;
71572;SDS011;59408;51.032;9.410;2022-10-31T05:44:36;12.20;;;4.80;;
71572;SDS011;59408;51.032;9.410;2022-10-31T05:47:03;10.90;;;4.50;;
71572;SDS011;59408;51.032;9.410;2022-10-31T05:49:30;9.35;;;4.63;;
71572;SDS011;59408;51.032;9.410;2022-10-31T05:51:57;10.40;;;4.90;;
71572;SDS011;59408;51.032;9.410;2022-10-31T05:54:23;12.20;;;5.82;;
71572;SDS011;59408;51.032;9.410;2022-10-31T05:56:50;14.15;;;6.03;;
71572;SDS011;59408;51.032;9.410;2022-10-31T05:59:17;16.25;;;6.53;;
71572;SDS011;59408;51.032;9.410;2022-10-31T06:01:43;17.88;;;6.80;;
71572;SDS011;59408;51.032;9.410;2022-10-31T06:04:10;15.50;;;6.67;;
71572;SDS011;59408;51.032;9.410;2022-10-31T06:06:38;15.15;;;6.15;;
71572;SDS011;59408;51.032;9.410;2022-10-31T06:09:05;14.52;;;5.72;;
71572;SDS011;59408;51.032;9.410;2022-10-31T06:11:31;14.48;;;5.72;;
71572;SDS011;59408;51.032;9.410;2022-10-31T06:13:58;13.07;;;6.10;;
71572;SDS011;59408;51.032;9.410;2022-10-31T06:16:24;14.63;;;5.47;;
71572;SDS011;59408;51.032;9.410;2022-10-31T06:18:51;16.40;;;5.70;;
71572;SDS011;59408;51.032;9.410;2022-10-31T06:21:18;12.40;;;5.80;;
71572;SDS011;59408;51.032;9.410;2022-10-31T06:23:46;13.70;;;5.80;;
71572;SDS011;59408;51.032;9.410;2022-10-31T06:26:12;16.42;;;6.07;;
71572;SDS011;59408;51.032;9.410;2022-10-31T06:28:39;16.13;;;5.60;;
71572;SDS011;59408;51.032;9.410;2022-10-31T06:31:05;13.07;;;5.57;;
71572;SDS011;59408;51.032;9.410;2022-10-31T06:33:32;10.23;;;5.20;;
71572;SDS011;59408;51.032;9.410;2022-10-31T06:35:59;12.70;;;5.18;;
71572;SDS011;59408;51.032;9.410;2022-10-31T06:38:26;12.73;;;4.70;;
71572;SDS011;59408;51.032;9.410;2022-10-31T06:40:54;10.97;;;5.13;;
71572;SDS011;59408;51.032;9.410;2022-10-31T06:43:21;14.35;;;4.72;;
71572;SDS011;59408;51.032;9.410;2022-10-31T06:45:48;11.35;;;4.70;;
71572;SDS011;59408;51.032;9.410;2022-10-31T06:48:14;10.77;;;5.40;;
71572;SDS011;59408;51.032;9.410;2022-10-31T06:50:43;11.73;;;4.65;;
71572;SDS011;59408;51.032;9.410;2022-10-31T06:53:10;12.67;;;5.30;;
71572;SDS011;59408;51.032;9.410;2022-10-31T06:55:37;11.13;;;4.70;;
71572;SDS011;59408;51.032;9.410;2022-10-31T06:58:05;15.18;;;6.10;;
71572;SDS011;59408;51.032;9.410;2022-10-31T07:00:33;12.45;;;5.60;;
71572;SDS011;59408;51.032;9.410;2022-10-31T07:03:00;10.43;;;5.20;;
71572;SDS011;59408;51.032;9.410;2022-10-31T07:05:28;12.57;;;5.40;;
71572;SDS011;59408;51.032;9.410;2022-10-31T07:07:56;11.18;;;4.78;;
71572;SDS011;59408;51.032;9.410;2022-10-31T07:10:24;12.27;;;4.88;;
71572;SDS011;59408;51.032;9.410;2022-10-31T07:12:55;12.50;;;5.47;;
71572;SDS011;59408;51.032;9.410;2022-10-31T07:15:25;12.27;;;5.60;;
71572;SDS011;59408;51.032;9.410;2022-10-31T07:17:52;16.27;;;5.90;;
71572;SDS011;59408;51.032;9.410;2022-10-31T07:20:19;12.93;;;5.93;;
71572;SDS011;59408;51.032;9.410;2022-10-31T07:22:46;13.30;;;6.03;;
71572;SDS011;59408;51.032;9.410;2022-10-31T07:25:15;14.32;;;6.22;;
71572;SDS011;59408;51.032;9.410;2022-10-31T07:27:42;13.27;;;6.40;;
71572;SDS011;59408;51.032;9.410;2022-10-31T07:30:10;10.63;;;5.40;;
71572;SDS011;59408;51.032;9.410;2022-10-31T07:32:39;10.75;;;5.40;;
71572;SDS011;59408;51.032;9.410;2022-10-31T07:35:06;12.35;;;5.55;;
71572;SDS011;59408;51.032;9.410;2022-10-31T07:37:33;15.90;;;5.90;;
71572;SDS011;59408;51.032;9.410;2022-10-31T07:40:00;17.50;;;5.85;;
71572;SDS011;59408;51.032;9.410;2022-10-31T07:42:27;12.87;;;5.67;;
71572;SDS011;59408;51.032;9.410;2022-10-31T07:44:53;14.90;;;6.35;;
71572;SDS011;59408;51.032;9.410;2022-10-31T07:47:23;11.45;;;5.70;;
71572;SDS011;59408;51.032;9.410;2022-10-31T07:49:50;14.18;;;5.43;;
71572;SDS011;59408;51.032;9.410;2022-10-31T07:52:17;12.93;;;5.30;;
71572;SDS011;59408;51.032;9.410;2022-10-31T07:54:44;13.63;;;6.10;;
71572;SDS011;59408;51.032;9.410;2022-10-31T07:57:10;19.30;;;6.20;;
71572;SDS011;59408;51.032;9.410;2022-10-31T07:59:37;14.95;;;6.05;;
71572;SDS011;59408;51.032;9.410;2022-10-31T08:02:03;13.30;;;5.78;;
71572;SDS011;59408;51.032;9.410;2022-10-31T08:04:30;15.75;;;6.18;;
71572;SDS011;59408;51.032;9.410;2022-10-31T08:06:58;12.20;;;5.20;;
71572;SDS011;59408;51.032;9.410;2022-10-31T08:09:24;12.00;;;5.30;;
71572;SDS011;59408;51.032;9.410;2022-10-31T08:11:52;11.90;;;5.50;;
71572;SDS011;59408;51.032;9.410;2022-10-31T08:14:19;14.20;;;5.28;;
71572;SDS011;59408;51.032;9.410;2022-10-31T08:16:45;16.58;;;5.70;;
71572;SDS011;59408;51.032;9.410;2022-10-31T08:19:12;10.93;;;4.87;;
71572;SDS011;59408;51.032;9.410;2022-10-31T08:21:39;13.25;;;5.05;;
71572;SDS011;59408;51.032;9.410;2022-10-31T08:24:07;12.75;;;5.28;;
71572;SDS011;59408;51.032;9.410;2022-10-31T08:26:33;13.05;;;5.60;;
71572;SDS011;59408;51.032;9.410;2022-10-31T08:29:00;12.85;;;5.50;;
71572;SDS011;59408;51.032;9.410;2022-10-31T08:31:26;14.70;;;5.90;;
71572;SDS011;59408;51.032;9.410;2022-10-31T08:33:59;15.57;;;6.00;;
71572;SDS011;59408;51.032;9.410;2022-10-31T08:36:26;15.60;;;6.47;;
71572;SDS011;59408;51.032;9.410;2022-10-31T08:38:53;15.88;;;7.18;;
71572;SDS011;59408;51.032;9.410;2022-10-31T08:41:28;15.20;;;6.50;;
71572;SDS011;59408;51.032;9.410;2022-10-31T08:43:55;14.60;;;7.23;;
71572;SDS011;59408;51.032;9.410;2022-10-31T08:46:22;13.50;;;6.43;;
71572;SDS011;59408;51.032;9.410;2022-10-31T08:48:49;17.10;;;7.40;;
71572;SDS011;59408;51.032;9.410;2022-10-31T08:51:15;15.68;;;7.38;;
71572;SDS011;59408;51.032;9.410;2022-10-31T08:53:42;15.23;;;7.75;;
71572;SDS011;59408;51.032;9.410;2022-10-31T08:56:08;17.23;;;7.70;;
71572;SDS011;59408;51.032;9.410;2022-10-31T08:58:36;13.73;;;6.85;;
71572;SDS011;59408;51.032;9.410;2022-10-31T09:01:05;17.50;;;7.60;;
71572;SDS011;59408;51.032;9.410;2022-10-31T09:03:32;18.00;;;7.32;;
71572;SDS011;59408;51.032;9.410;2022-10-31T09:05:59;13.43;;;7.22;;
71572;SDS011;59408;51.032;9.410;2022-10-31T09:08:28;18.30;;;7.40;;
71572;SDS011;59408;51.032;9.410;2022-10-31T09:10:56;14.52;;;8.00;;
71572;SDS011;59408;51.032;9.410;2022-10-31T09:13:23;14.70;;;7.88;;
71572;SDS011;59408;51.032;9.410;2022-10-31T09:15:55;14.73;;;7.63;;
71572;SDS011;59408;51.032;9.410;2022-10-31T09:18:23;13.57;;;7.63;;
71572;SDS011;59408;51.032;9.410;2022-10-31T09:20:50;15.43;;;7.97;;
71572;SDS011;59408;51.032;9.410;2022-10-31T09:23:17;14.57;;;7.80;;
71572;SDS011;59408;51.032;9.410;2022-10-31T09:25:45;15.80;;;8.10;;
71572;SDS011;59408;51.032;9.410;2022-10-31T09:28:16;14.88;;;7.85;;
71572;SDS011;59408;51.032;9.410;2022-10-31T09:30:45;14.88;;;8.05;;
71572;SDS011;59408;51.032;9.410;2022-10-31T09:33:14;16.67;;;8.53;;
71572;SDS011;59408;51.032;9.410;2022-10-31T09:35:41;15.27;;;7.32;;
71572;SDS011;59408;51.032;9.410;2022-10-31T09:38:08;13.85;;;7.85;;
71572;SDS011;59408;51.032;9.410;2022-10-31T09:40:36;16.50;;;8.18;;
71572;SDS011;59408;51.032;9.410;2022-10-31T09:43:09;15.43;;;8.63;;
71572;SDS011;59408;51.032;9.410;2022-10-31T09:45:43;17.93;;;8.47;;
71572;SDS011;59408;51.032;9.410;2022-10-31T09:48:29;13.48;;;8.40;;
71572;SDS011;59408;51.032;9.410;2022-10-31T09:51:04;17.40;;;9.05;;
71572;SDS011;59408;51.032;9.410;2022-10-31T09:53:36;16.15;;;8.23;;
71572;SDS011;59408;51.032;9.410;2022-10-31T09:56:06;15.85;;;8.27;;
71572;SDS011;59408;51.032;9.410;2022-10-31T09:58:38;16.20;;;7.73;;
71572;SDS011;59408;51.032;9.410;2022-10-31T10:01:09;17.83;;;7.75;;
71572;SDS011;59408;51.032;9.410;2022-10-31T10:03:57;14.38;;;8.13;;
71572;SDS011;59408;51.032;9.410;2022-10-31T10:06:28;16.98;;;8.85;;
71572;SDS011;59408;51.032;9.410;2022-10-31T10:08:58;14.18;;;7.93;;
71572;SDS011;59408;51.032;9.410;2022-10-31T10:11:32;16.30;;;8.13;;
71572;SDS011;59408;51.032;9.410;2022-10-31T10:14:15;15.85;;;7.93;;
71572;SDS011;59408;51.032;9.410;2022-10-31T10:16:59;13.38;;;7.55;;
71572;SDS011;59408;51.032;9.410;2022-10-31T10:19:38;15.23;;;8.25;;
71572;SDS011;59408;51.032;9.410;2022-10-31T10:22:19;14.93;;;7.80;;
71572;SDS011;59408;51.032;9.410;2022-10-31T10:24:56;19.90;;;8.27;;
71572;SDS011;59408;51.032;9.410;2022-10-31T10:27:35;16.35;;;8.32;;
71572;SDS011;59408;51.032;9.410;2022-10-31T10:30:11;15.18;;;8.00;;
71572;SDS011;59408;51.032;9.410;2022-10-31T10:32:42;14.18;;;8.00;;
71572;SDS011;59408;51.032;9.410;2022-10-31T10:35:21;14.82;;;7.53;;
71572;SDS011;59408;51.032;9.410;2022-10-31T10:37:51;18.30;;;8.43;;
71572;SDS011;59408;51.032;9.410;2022-10-31T10:40:23;16.42;;;7.15;;
71572;SDS011;59408;51.032;9.410;2022-10-31T10:42:53;15.48;;;8.23;;
71572;SDS011;59408;51.032;9.410;2022-10-31T10:45:27;16.30;;;7.38;;
71572;SDS011;59408;51.032;9.410;2022-10-31T10:47:55;13.20;;;7.90;;
71572;SDS011;59408;51.032;9.410;2022-10-31T10:50:33;15.73;;;7.43;;
71572;SDS011;59408;51.032;9.410;2022-10-31T10:53:06;12.85;;;7.57;;
71572;SDS011;59408;51.032;9.410;2022-10-31T10:55:41;15.43;;;8.05;;
71572;SDS011;59408;51.032;9.410;2022-10-31T10:58:15;13.32;;;7.90;;
71572;SDS011;59408;51.032;9.410;2022-10-31T11:00:42;17.13;;;7.63;;
71572;SDS011;59408;51.032;9.410;2022-10-31T11:03:11;15.37;;;7.43;;
71572;SDS011;59408;51.032;9.410;2022-10-31T11:05:40;14.27;;;7.55;;
71572;SDS011;59408;51.032;9.410;2022-10-31T11:08:11;14.65;;;7.93;;
71572;SDS011;59408;51.032;9.410;2022-10-31T11:10:57;13.20;;;7.25;;
71572;SDS011;59408;51.032;9.410;2022-10-31T11:13:25;16.27;;;7.57;;
71572;SDS011;59408;51.032;9.410;2022-10-31T11:15:59;16.30;;;7.77;;
71572;SDS011;59408;51.032;9.410;2022-10-31T11:18:29;12.38;;;7.60;;
71572;SDS011;59408;51.032;9.410;2022-10-31T11:20:59;17.02;;;7.40;;
71572;SDS011;59408;51.032;9.410;2022-10-31T11:23:27;16.15;;;8.27;;
71572;SDS011;59408;51.032;9.410;2022-10-31T11:25:55;15.95;;;7.97;;
71572;SDS011;59408;51.032;9.410;2022-10-31T11:28:23;16.20;;;8.30;;
71572;SDS011;59408;51.032;9.410;2022-10-31T11:30:51;16.25;;;7.97;;
71572;SDS011;59408;51.032;9.410;2022-10-31T11:33:22;15.73;;;8.20;;
71572;SDS011;59408;51.032;9.410;2022-10-31T11:35:52;16.67;;;8.18;;
71572;SDS011;59408;51.032;9.410;2022-10-31T11:38:26;15.85;;;8.15;;
71572;SDS011;59408;51.032;9.410;2022-10-31T11:41:00;14.70;;;8.23;;
71572;SDS011;59408;51.032;9.410;2022-10-31T11:43:35;19.60;;;9.15;;
71572;SDS011;59408;51.032;9.410;2022-10-31T11:46:08;17.92;;;8.93;;
71572;SDS011;59408;51.032;9.410;2022-10-31T11:48:36;18.10;;;9.20;;
71572;SDS011;59408;51.032;9.410;2022-10-31T11:51:03;18.25;;;9.10;;
71572;SDS011;59408;51.032;9.410;2022-10-31T11:53:32;17.27;;;9.30;;
71572;SDS011;59408;51.032;9.410;2022-10-31T11:56:01;19.85;;;9.20;;
71572;SDS011;59408;51.032;9.410;2022-10-31T11:58:31;19.55;;;9.45;;
71572;SDS011;59408;51.032;9.410;2022-10-31T12:00:58;16.38;;;9.07;;
71572;SDS011;59408;51.032;9.410;2022-10-31T12:03:32;19.60;;;10.52;;
71572;SDS011;59408;51.032;9.410;2022-10-31T12:06:06;17.23;;;9.97;;
71572;SDS011;59408;51.032;9.410;2022-10-31T12:08:38;20.05;;;9.77;;
71572;SDS011;59408;51.032;9.410;2022-10-31T12:11:09;20.50;;;9.30;;
71572;SDS011;59408;51.032;9.410;2022-10-31T12:13:48;17.90;;;9.00;;
71572;SDS011;59408;51.032;9.410;2022-10-31T12:16:31;17.95;;;10.15;;
71572;SDS011;59408;51.032;9.410;2022-10-31T12:19:03;17.53;;;9.33;;
71572;SDS011;59408;51.032;9.410;2022-10-31T12:21:34;21.75;;;9.60;;
71572;SDS011;59408;51.032;9.410;2022-10-31T12:24:18;18.92;;;10.02;;
71572;SDS011;59408;51.032;9.410;2022-10-31T12:26:58;20.52;;;9.55;;
71572;SDS011;59408;51.032;9.410;2022-10-31T12:29:38;17.42;;;9.00;;
71572;SDS011;59408;51.032;9.410;2022-10-31T12:32:20;19.77;;;9.37;;
71572;SDS011;59408;51.032;9.410;2022-10-31T12:35:08;19.10;;;9.63;;
71572;SDS011;59408;51.032;9.410;2022-10-31T12:37:50;19.70;;;9.20;;
71572;SDS011;59408;51.032;9.410;2022-10-31T12:40:32;19.70;;;9.63;;
71572;SDS011;59408;51.032;9.410;2022-10-31T12:43:21;20.23;;;9.93;;
71572;SDS011;59408;51.032;9.410;2022-10-31T12:45:59;20.93;;;9.47;;
71572;SDS011;59408;51.032;9.410;2022-10-31T12:48:33;20.13;;;10.48;;
71572;SDS011;59408;51.032;9.410;2022-10-31T12:51:25;18.73;;;8.80;;
71572;SDS011;59408;51.032;9.410;2022-10-31T12:54:04;20.60;;;9.18;;
71572;SDS011;59408;51.032;9.410;2022-10-31T12:56:51;19.30;;;8.00;;
71572;SDS011;59408;51.032;9.410;2022-10-31T12:59:28;17.20;;;8.87;;
71572;SDS011;59408;51.032;9.410;2022-10-31T13:01:59;17.52;;;8.27;;
71572;SDS011;59408;51.032;9.410;2022-10-31T13:04:39;17.33;;;8.77;;
71572;SDS011;59408;51.032;9.410;2022-10-31T13:07:12;20.10;;;8.80;;
71572;SDS011;59408;51.032;9.410;2022-10-31T13:09:47;17.63;;;8.77;;
71572;SDS011;59408;51.032;9.410;2022-10-31T13:12:22;17.73;;;8.47;;
71572;SDS011;59408;51.032;9.410;2022-10-31T13:14:51;18.55;;;8.48;;
71572;SDS011;59408;51.032;9.410;2022-10-31T13:17:22;18.65;;;9.43;;
71572;SDS011;59408;51.032;9.410;2022-10-31T13:19:55;17.02;;;8.27;;
71572;SDS011;59408;51.032;9.410;2022-10-31T13:22:30;18.63;;;9.55;;
71572;SDS011;59408;51.032;9.410;2022-10-31T13:24:59;19.27;;;8.87;;
71572;SDS011;59408;51.032;9.410;2022-10-31T13:27:39;15.93;;;8.57;;
71572;SDS011;59408;51.032;9.410;2022-10-31T13:30:12;21.05;;;9.02;;
71572;SDS011;59408;51.032;9.410;2022-10-31T13:32:41;18.52;;;9.13;;
71572;SDS011;59408;51.032;9.410;2022-10-31T13:35:14;20.45;;;9.52;;
71572;SDS011;59408;51.032;9.410;2022-10-31T13:37:46;20.70;;;9.10;;
71572;SDS011;59408;51.032;9.410;2022-10-31T13:40:21;21.80;;;9.80;;
71572;SDS011;59408;51.032;9.410;2022-10-31T13:42:59;20.92;;;9.00;;
71572;SDS011;59408;51.032;9.410;2022-10-31T13:45:33;17.63;;;9.40;;
71572;SDS011;59408;51.032;9.410;2022-10-31T13:48:00;19.73;;;9.18;;
71572;SDS011;59408;51.032;9.410;2022-10-31T13:50:43;18.90;;;9.27;;
71572;SDS011;59408;51.032;9.410;2022-10-31T13:53:22;16.75;;;8.20;;
71572;SDS011;59408;51.032;9.410;2022-10-31T13:56:03;21.50;;;9.68;;
71572;SDS011;59408;51.032;9.410;2022-10-31T13:58:56;14.98;;;7.85;;
71572;SDS011;59408;51.032;9.410;2022-10-31T14:01:26;19.48;;;9.00;;
71572;SDS011;59408;51.032;9.410;2022-10-31T14:03:58;22.37;;;9.43;;
71572;SDS011;59408;51.032;9.410;2022-10-31T14:06:43;16.70;;;8.90;;
71572;SDS011;59408;51.032;9.410;2022-10-31T14:09:19;33.10;;;10.30;;
71572;SDS011;59408;51.032;9.410;2022-10-31T14:11:49;16.40;;;9.15;;
71572;SDS011;59408;51.032;9.410;2022-10-31T14:14:18;20.10;;;9.57;;
71572;SDS011;59408;51.032;9.410;2022-10-31T14:16:52;18.80;;;10.10;;
71572;SDS011;59408;51.032;9.410;2022-10-31T14:19:22;21.52;;;9.07;;
71572;SDS011;59408;51.032;9.410;2022-10-31T14:21:49;19.77;;;10.18;;
71572;SDS011;59408;51.032;9.410;2022-10-31T14:24:30;20.92;;;9.70;;
71572;SDS011;59408;51.032;9.410;2022-10-31T14:27:00;21.92;;;10.00;;
71572;SDS011;59408;51.032;9.410;2022-10-31T14:29:30;19.43;;;9.23;;
71572;SDS011;59408;51.032;9.410;2022-10-31T14:31:59;18.38;;;9.48;;
71572;SDS011;59408;51.032;9.410;2022-10-31T14:34:32;19.33;;;9.00;;
71572;SDS011;59408;51.032;9.410;2022-10-31T14:37:07;21.02;;;9.93;;
71572;SDS011;59408;51.032;9.410;2022-10-31T14:39:49;19.83;;;8.90;;
71572;SDS011;59408;51.032;9.410;2022-10-31T14:42:31;17.93;;;8.60;;
71572;SDS011;59408;51.032;9.410;2022-10-31T14:45:15;18.77;;;9.20;;
71572;SDS011;59408;51.032;9.410;2022-10-31T14:47:53;16.75;;;8.52;;
71572;SDS011;59408;51.032;9.410;2022-10-31T14:50:37;16.70;;;7.93;;
71572;SDS011;59408;51.032;9.410;2022-10-31T14:53:11;25.42;;;8.93;;
71572;SDS011;59408;51.032;9.410;2022-10-31T14:55:44;18.63;;;8.77;;
71572;SDS011;59408;51.032;9.410;2022-10-31T14:58:15;18.90;;;9.85;;